sensor_id;sensor_type;location;lat;lon;timestamp;P1;durP1;ratioP1;P2;durP2;ratioP2
18176;SDS011;9213;50.858;3.964;2022-07-29T00:01:48;3.92;;;2.50;;
18176;SDS011;9213;50.858;3.964;2022-07-29T00:04:17;7.18;;;2.47;;
18176;SDS011;9213;50.858;3.964;2022-07-29T00:06:44;4.93;;;2.20;;
18176;SDS011;9213;50.858;3.964;2022-07-29T00:09:11;3.03;;;1.90;;
18176;SDS011;9213;50.858;3.964;2022-07-29T00:11:38;2.33;;;1.92;;
18176;SDS011;9213;50.858;3.964;2022-07-29T00:14:05;5.50;;;2.40;;
18176;SDS011;9213;50.858;3.964;2022-07-29T00:16:33;4.47;;;1.90;;
18176;SDS011;9213;50.858;3.964;2022-07-29T00:19:00;5.25;;;2.10;;
18176;SDS011;9213;50.858;3.964;2022-07-29T00:21:28;4.10;;;2.20;;
18176;SDS011;9213;50.858;3.964;2022-07-29T00:23:55;2.60;;;1.95;;
18176;SDS011;9213;50.858;3.964;2022-07-29T00:26:21;8.05;;;2.00;;
18176;SDS011;9213;50.858;3.964;2022-07-29T00:28:49;2.28;;;1.70;;
18176;SDS011;9213;50.858;3.964;2022-07-29T00:31:16;4.05;;;2.35;;
18176;SDS011;9213;50.858;3.964;2022-07-29T00:33:44;2.15;;;1.90;;
18176;SDS011;9213;50.858;3.964;2022-07-29T00:36:11;4.30;;;2.20;;
18176;SDS011;9213;50.858;3.964;2022-07-29T00:38:37;4.47;;;2.20;;
18176;SDS011;9213;50.858;3.964;2022-07-29T00:41:04;3.17;;;2.22;;
18176;SDS011;9213;50.858;3.964;2022-07-29T00:43:30;2.72;;;1.90;;
18176;SDS011;9213;50.858;3.964;2022-07-29T00:45:57;2.63;;;1.95;;
18176;SDS011;9213;50.858;3.964;2022-07-29T00:48:24;4.07;;;2.20;;
18176;SDS011;9213;50.858;3.964;2022-07-29T00:50:52;4.97;;;2.08;;
18176;SDS011;9213;50.858;3.964;2022-07-29T00:53:20;4.65;;;2.40;;
18176;SDS011;9213;50.858;3.964;2022-07-29T00:55:47;4.60;;;2.17;;
18176;SDS011;9213;50.858;3.964;2022-07-29T00:58:14;4.65;;;2.08;;
18176;SDS011;9213;50.858;3.964;2022-07-29T01:00:41;4.45;;;2.63;;
18176;SDS011;9213;50.858;3.964;2022-07-29T01:03:09;3.15;;;2.10;;
18176;SDS011;9213;50.858;3.964;2022-07-29T01:05:36;3.17;;;2.28;;
18176;SDS011;9213;50.858;3.964;2022-07-29T01:08:05;4.85;;;2.28;;
18176;SDS011;9213;50.858;3.964;2022-07-29T01:10:32;3.70;;;2.58;;
18176;SDS011;9213;50.858;3.964;2022-07-29T01:13:03;4.30;;;2.50;;
18176;SDS011;9213;50.858;3.964;2022-07-29T01:15:31;3.63;;;2.50;;
18176;SDS011;9213;50.858;3.964;2022-07-29T01:18:00;4.10;;;2.70;;
18176;SDS011;9213;50.858;3.964;2022-07-29T01:20:36;5.97;;;2.80;;
18176;SDS011;9213;50.858;3.964;2022-07-29T01:23:25;7.72;;;2.42;;
18176;SDS011;9213;50.858;3.964;2022-07-29T01:26:19;4.43;;;2.70;;
18176;SDS011;9213;50.858;3.964;2022-07-29T01:29:07;7.45;;;2.83;;
18176;SDS011;9213;50.858;3.964;2022-07-29T01:31:41;5.18;;;3.20;;
18176;SDS011;9213;50.858;3.964;2022-07-29T01:34:11;5.83;;;2.67;;
18176;SDS011;9213;50.858;3.964;2022-07-29T01:36:45;4.43;;;2.85;;
18176;SDS011;9213;50.858;3.964;2022-07-29T01:39:17;6.57;;;2.90;;
18176;SDS011;9213;50.858;3.964;2022-07-29T01:41:50;4.35;;;3.10;;
18176;SDS011;9213;50.858;3.964;2022-07-29T01:44:29;4.17;;;3.00;;
18176;SDS011;9213;50.858;3.964;2022-07-29T01:46:58;6.73;;;2.77;;
18176;SDS011;9213;50.858;3.964;2022-07-29T01:49:31;4.05;;;2.97;;
18176;SDS011;9213;50.858;3.964;2022-07-29T01:52:03;7.35;;;3.20;;
18176;SDS011;9213;50.858;3.964;2022-07-29T01:54:35;4.05;;;2.70;;
18176;SDS011;9213;50.858;3.964;2022-07-29T01:57:08;4.82;;;2.97;;
18176;SDS011;9213;50.858;3.964;2022-07-29T01:59:39;4.70;;;3.15;;
18176;SDS011;9213;50.858;3.964;2022-07-29T02:02:08;6.63;;;3.95;;
18176;SDS011;9213;50.858;3.964;2022-07-29T02:04:37;4.40;;;3.08;;
18176;SDS011;9213;50.858;3.964;2022-07-29T02:07:07;6.22;;;3.03;;
18176;SDS011;9213;50.858;3.964;2022-07-29T02:09:36;5.03;;;3.00;;
18176;SDS011;9213;50.858;3.964;2022-07-29T02:12:05;5.83;;;3.37;;
18176;SDS011;9213;50.858;3.964;2022-07-29T02:14:36;6.57;;;3.03;;
18176;SDS011;9213;50.858;3.964;2022-07-29T02:17:06;6.13;;;3.17;;
18176;SDS011;9213;50.858;3.964;2022-07-29T02:19:34;5.07;;;3.40;;
18176;SDS011;9213;50.858;3.964;2022-07-29T02:22:04;5.77;;;3.37;;
18176;SDS011;9213;50.858;3.964;2022-07-29T02:24:32;3.63;;;3.20;;
18176;SDS011;9213;50.858;3.964;2022-07-29T02:27:02;7.60;;;3.37;;
18176;SDS011;9213;50.858;3.964;2022-07-29T02:29:30;6.20;;;3.17;;
18176;SDS011;9213;50.858;3.964;2022-07-29T02:32:00;6.80;;;3.27;;
18176;SDS011;9213;50.858;3.964;2022-07-29T02:34:29;7.17;;;3.47;;
18176;SDS011;9213;50.858;3.964;2022-07-29T02:36:56;8.00;;;3.47;;
18176;SDS011;9213;50.858;3.964;2022-07-29T02:39:25;4.90;;;3.23;;
18176;SDS011;9213;50.858;3.964;2022-07-29T02:41:55;4.40;;;3.40;;
18176;SDS011;9213;50.858;3.964;2022-07-29T02:44:24;6.40;;;3.57;;
18176;SDS011;9213;50.858;3.964;2022-07-29T02:46:53;4.63;;;3.50;;
18176;SDS011;9213;50.858;3.964;2022-07-29T02:49:32;6.37;;;3.63;;
18176;SDS011;9213;50.858;3.964;2022-07-29T02:52:03;4.73;;;3.07;;
18176;SDS011;9213;50.858;3.964;2022-07-29T02:54:41;5.43;;;3.63;;
18176;SDS011;9213;50.858;3.964;2022-07-29T02:57:14;8.43;;;3.57;;
18176;SDS011;9213;50.858;3.964;2022-07-29T02:59:47;6.43;;;3.60;;
18176;SDS011;9213;50.858;3.964;2022-07-29T03:02:16;5.13;;;3.23;;
18176;SDS011;9213;50.858;3.964;2022-07-29T03:04:45;7.20;;;3.93;;
18176;SDS011;9213;50.858;3.964;2022-07-29T03:07:14;6.17;;;3.33;;
18176;SDS011;9213;50.858;3.964;2022-07-29T03:09:44;5.57;;;3.53;;
18176;SDS011;9213;50.858;3.964;2022-07-29T03:12:12;6.17;;;3.83;;
18176;SDS011;9213;50.858;3.964;2022-07-29T03:14:40;12.17;;;3.73;;
18176;SDS011;9213;50.858;3.964;2022-07-29T03:17:08;5.07;;;3.70;;
18176;SDS011;9213;50.858;3.964;2022-07-29T03:19:36;4.20;;;3.80;;
18176;SDS011;9213;50.858;3.964;2022-07-29T03:22:05;5.73;;;3.80;;
18176;SDS011;9213;50.858;3.964;2022-07-29T03:24:33;5.30;;;3.83;;
18176;SDS011;9213;50.858;3.964;2022-07-29T03:27:02;5.97;;;4.43;;
18176;SDS011;9213;50.858;3.964;2022-07-29T03:29:30;4.40;;;4.00;;
18176;SDS011;9213;50.858;3.964;2022-07-29T03:31:57;6.57;;;4.30;;
18176;SDS011;9213;50.858;3.964;2022-07-29T03:34:24;6.97;;;3.90;;
18176;SDS011;9213;50.858;3.964;2022-07-29T03:36:51;6.20;;;4.47;;
18176;SDS011;9213;50.858;3.964;2022-07-29T03:39:20;5.30;;;4.20;;
18176;SDS011;9213;50.858;3.964;2022-07-29T03:41:52;7.03;;;4.23;;
18176;SDS011;9213;50.858;3.964;2022-07-29T03:44:21;9.13;;;4.67;;
18176;SDS011;9213;50.858;3.964;2022-07-29T03:46:50;7.40;;;4.33;;
18176;SDS011;9213;50.858;3.964;2022-07-29T03:49:20;5.87;;;4.80;;
18176;SDS011;9213;50.858;3.964;2022-07-29T03:51:49;4.83;;;3.93;;
18176;SDS011;9213;50.858;3.964;2022-07-29T03:54:16;5.60;;;4.43;;
18176;SDS011;9213;50.858;3.964;2022-07-29T03:56:46;7.83;;;4.50;;
18176;SDS011;9213;50.858;3.964;2022-07-29T03:59:15;5.67;;;4.33;;
18176;SDS011;9213;50.858;3.964;2022-07-29T04:01:44;8.33;;;4.90;;
18176;SDS011;9213;50.858;3.964;2022-07-29T04:04:12;8.03;;;4.70;;
18176;SDS011;9213;50.858;3.964;2022-07-29T04:06:39;9.00;;;4.57;;
18176;SDS011;9213;50.858;3.964;2022-07-29T04:09:07;10.77;;;5.20;;
18176;SDS011;9213;50.858;3.964;2022-07-29T04:11:35;7.43;;;4.90;;
18176;SDS011;9213;50.858;3.964;2022-07-29T04:14:05;6.83;;;4.60;;
18176;SDS011;9213;50.858;3.964;2022-07-29T04:16:32;9.23;;;4.53;;
18176;SDS011;9213;50.858;3.964;2022-07-29T04:18:59;9.00;;;4.73;;
18176;SDS011;9213;50.858;3.964;2022-07-29T04:21:27;6.97;;;4.57;;
18176;SDS011;9213;50.858;3.964;2022-07-29T04:23:54;8.17;;;5.30;;
18176;SDS011;9213;50.858;3.964;2022-07-29T04:26:21;5.67;;;4.77;;
18176;SDS011;9213;50.858;3.964;2022-07-29T04:28:47;7.73;;;4.77;;
18176;SDS011;9213;50.858;3.964;2022-07-29T04:31:16;7.10;;;4.47;;
18176;SDS011;9213;50.858;3.964;2022-07-29T04:33:43;10.67;;;4.80;;
18176;SDS011;9213;50.858;3.964;2022-07-29T04:36:09;10.93;;;5.13;;
18176;SDS011;9213;50.858;3.964;2022-07-29T04:38:37;6.40;;;5.17;;
18176;SDS011;9213;50.858;3.964;2022-07-29T04:41:04;8.27;;;4.77;;
18176;SDS011;9213;50.858;3.964;2022-07-29T04:43:33;8.93;;;5.07;;
18176;SDS011;9213;50.858;3.964;2022-07-29T04:46:00;8.00;;;4.80;;
18176;SDS011;9213;50.858;3.964;2022-07-29T04:48:28;5.80;;;4.67;;
18176;SDS011;9213;50.858;3.964;2022-07-29T04:50:55;7.57;;;4.77;;
18176;SDS011;9213;50.858;3.964;2022-07-29T04:53:22;11.50;;;5.13;;
18176;SDS011;9213;50.858;3.964;2022-07-29T04:55:49;12.30;;;4.80;;
18176;SDS011;9213;50.858;3.964;2022-07-29T04:58:16;9.63;;;4.77;;
18176;SDS011;9213;50.858;3.964;2022-07-29T05:00:43;7.77;;;4.80;;
18176;SDS011;9213;50.858;3.964;2022-07-29T05:03:10;8.17;;;4.80;;
18176;SDS011;9213;50.858;3.964;2022-07-29T05:05:38;6.00;;;4.87;;
18176;SDS011;9213;50.858;3.964;2022-07-29T05:08:05;9.60;;;5.40;;
18176;SDS011;9213;50.858;3.964;2022-07-29T05:10:32;23.03;;;6.50;;
18176;SDS011;9213;50.858;3.964;2022-07-29T05:13:03;7.77;;;4.73;;
18176;SDS011;9213;50.858;3.964;2022-07-29T05:15:30;7.70;;;4.80;;
18176;SDS011;9213;50.858;3.964;2022-07-29T05:17:57;8.40;;;4.97;;
18176;SDS011;9213;50.858;3.964;2022-07-29T05:20:24;7.57;;;4.27;;
18176;SDS011;9213;50.858;3.964;2022-07-29T05:22:54;4.97;;;4.43;;
18176;SDS011;9213;50.858;3.964;2022-07-29T05:25:21;8.60;;;4.63;;
18176;SDS011;9213;50.858;3.964;2022-07-29T05:27:48;5.00;;;4.50;;
18176;SDS011;9213;50.858;3.964;2022-07-29T05:30:15;8.80;;;4.80;;
18176;SDS011;9213;50.858;3.964;2022-07-29T05:32:42;7.10;;;4.90;;
18176;SDS011;9213;50.858;3.964;2022-07-29T05:35:09;5.20;;;4.47;;
18176;SDS011;9213;50.858;3.964;2022-07-29T05:37:37;7.00;;;4.57;;
18176;SDS011;9213;50.858;3.964;2022-07-29T05:40:06;5.87;;;4.90;;
18176;SDS011;9213;50.858;3.964;2022-07-29T05:42:34;7.27;;;4.40;;
18176;SDS011;9213;50.858;3.964;2022-07-29T05:45:01;7.17;;;4.37;;
18176;SDS011;9213;50.858;3.964;2022-07-29T05:47:30;8.20;;;5.37;;
18176;SDS011;9213;50.858;3.964;2022-07-29T05:49:57;7.03;;;4.60;;
18176;SDS011;9213;50.858;3.964;2022-07-29T05:52:24;5.23;;;4.67;;
18176;SDS011;9213;50.858;3.964;2022-07-29T05:54:50;7.83;;;4.97;;
18176;SDS011;9213;50.858;3.964;2022-07-29T05:57:19;7.57;;;5.73;;
18176;SDS011;9213;50.858;3.964;2022-07-29T05:59:47;7.83;;;5.20;;
18176;SDS011;9213;50.858;3.964;2022-07-29T06:02:15;5.63;;;4.80;;
18176;SDS011;9213;50.858;3.964;2022-07-29T06:04:43;7.90;;;4.87;;
18176;SDS011;9213;50.858;3.964;2022-07-29T06:07:10;6.03;;;4.90;;
18176;SDS011;9213;50.858;3.964;2022-07-29T06:09:37;6.13;;;4.97;;
18176;SDS011;9213;50.858;3.964;2022-07-29T06:12:04;7.07;;;5.43;;
18176;SDS011;9213;50.858;3.964;2022-07-29T06:14:32;5.27;;;4.77;;
18176;SDS011;9213;50.858;3.964;2022-07-29T06:17:00;9.77;;;4.80;;
18176;SDS011;9213;50.858;3.964;2022-07-29T06:19:27;6.23;;;4.87;;
18176;SDS011;9213;50.858;3.964;2022-07-29T06:21:54;6.27;;;5.03;;
18176;SDS011;9213;50.858;3.964;2022-07-29T06:24:20;7.43;;;4.80;;
18176;SDS011;9213;50.858;3.964;2022-07-29T06:26:47;7.33;;;5.17;;
18176;SDS011;9213;50.858;3.964;2022-07-29T06:29:14;7.70;;;4.70;;
18176;SDS011;9213;50.858;3.964;2022-07-29T06:31:43;6.33;;;4.90;;
18176;SDS011;9213;50.858;3.964;2022-07-29T06:34:10;6.57;;;4.90;;
18176;SDS011;9213;50.858;3.964;2022-07-29T06:36:37;9.30;;;5.03;;
18176;SDS011;9213;50.858;3.964;2022-07-29T06:39:04;6.97;;;4.43;;
18176;SDS011;9213;50.858;3.964;2022-07-29T06:41:32;4.97;;;4.57;;
18176;SDS011;9213;50.858;3.964;2022-07-29T06:43:59;8.98;;;4.55;;
18176;SDS011;9213;50.858;3.964;2022-07-29T06:46:26;6.30;;;5.03;;
18176;SDS011;9213;50.858;3.964;2022-07-29T06:48:55;8.00;;;4.67;;
18176;SDS011;9213;50.858;3.964;2022-07-29T06:51:22;4.78;;;4.20;;
18176;SDS011;9213;50.858;3.964;2022-07-29T06:53:49;7.93;;;4.60;;
18176;SDS011;9213;50.858;3.964;2022-07-29T06:56:16;6.85;;;4.13;;
18176;SDS011;9213;50.858;3.964;2022-07-29T06:58:43;7.03;;;3.90;;
18176;SDS011;9213;50.858;3.964;2022-07-29T07:01:10;5.53;;;3.70;;
18176;SDS011;9213;50.858;3.964;2022-07-29T07:03:37;6.80;;;4.35;;
18176;SDS011;9213;50.858;3.964;2022-07-29T07:06:05;5.68;;;4.00;;
18176;SDS011;9213;50.858;3.964;2022-07-29T07:08:32;9.95;;;4.22;;
18176;SDS011;9213;50.858;3.964;2022-07-29T07:10:59;6.03;;;3.90;;
18176;SDS011;9213;50.858;3.964;2022-07-29T07:13:26;6.72;;;4.18;;
18176;SDS011;9213;50.858;3.964;2022-07-29T07:15:59;7.05;;;4.03;;
18176;SDS011;9213;50.858;3.964;2022-07-29T07:18:26;5.53;;;4.10;;
18176;SDS011;9213;50.858;3.964;2022-07-29T07:20:53;7.40;;;4.22;;
18176;SDS011;9213;50.858;3.964;2022-07-29T07:23:22;5.13;;;4.03;;
18176;SDS011;9213;50.858;3.964;2022-07-29T07:25:49;6.13;;;3.70;;
18176;SDS011;9213;50.858;3.964;2022-07-29T07:28:17;6.78;;;3.70;;
18176;SDS011;9213;50.858;3.964;2022-07-29T07:30:44;5.93;;;3.78;;
18176;SDS011;9213;50.858;3.964;2022-07-29T07:33:11;5.55;;;3.53;;
18176;SDS011;9213;50.858;3.964;2022-07-29T07:35:38;4.95;;;3.58;;
18176;SDS011;9213;50.858;3.964;2022-07-29T07:38:05;5.18;;;3.47;;
18176;SDS011;9213;50.858;3.964;2022-07-29T07:40:34;7.30;;;3.63;;
18176;SDS011;9213;50.858;3.964;2022-07-29T07:43:01;4.43;;;3.60;;
18176;SDS011;9213;50.858;3.964;2022-07-29T07:45:28;5.65;;;3.90;;
18176;SDS011;9213;50.858;3.964;2022-07-29T07:47:57;5.63;;;3.55;;
18176;SDS011;9213;50.858;3.964;2022-07-29T07:50:24;10.18;;;4.03;;
18176;SDS011;9213;50.858;3.964;2022-07-29T07:52:51;6.20;;;3.33;;
18176;SDS011;9213;50.858;3.964;2022-07-29T07:55:22;4.72;;;3.67;;
18176;SDS011;9213;50.858;3.964;2022-07-29T07:57:51;5.13;;;3.60;;
18176;SDS011;9213;50.858;3.964;2022-07-29T08:00:18;4.60;;;3.55;;
18176;SDS011;9213;50.858;3.964;2022-07-29T08:02:45;4.82;;;3.53;;
18176;SDS011;9213;50.858;3.964;2022-07-29T08:05:13;3.90;;;3.47;;
18176;SDS011;9213;50.858;3.964;2022-07-29T08:07:42;8.35;;;3.70;;
18176;SDS011;9213;50.858;3.964;2022-07-29T08:10:10;3.95;;;3.10;;
18176;SDS011;9213;50.858;3.964;2022-07-29T08:12:37;5.90;;;3.40;;
18176;SDS011;9213;50.858;3.964;2022-07-29T08:15:06;6.60;;;3.70;;
18176;SDS011;9213;50.858;3.964;2022-07-29T08:17:33;7.50;;;3.83;;
18176;SDS011;9213;50.858;3.964;2022-07-29T08:20:00;3.60;;;3.30;;
18176;SDS011;9213;50.858;3.964;2022-07-29T08:22:27;5.93;;;3.58;;
18176;SDS011;9213;50.858;3.964;2022-07-29T08:24:54;4.18;;;2.92;;
18176;SDS011;9213;50.858;3.964;2022-07-29T08:27:21;5.95;;;3.25;;
18176;SDS011;9213;50.858;3.964;2022-07-29T08:29:49;3.42;;;3.05;;
18176;SDS011;9213;50.858;3.964;2022-07-29T08:32:17;5.07;;;2.85;;
18176;SDS011;9213;50.858;3.964;2022-07-29T08:34:44;3.30;;;2.50;;
18176;SDS011;9213;50.858;3.964;2022-07-29T08:37:11;3.17;;;2.88;;
18176;SDS011;9213;50.858;3.964;2022-07-29T08:39:38;4.30;;;2.47;;
18176;SDS011;9213;50.858;3.964;2022-07-29T08:42:06;4.68;;;2.83;;
18176;SDS011;9213;50.858;3.964;2022-07-29T08:44:33;3.38;;;2.65;;
18176;SDS011;9213;50.858;3.964;2022-07-29T08:47:00;5.22;;;3.00;;
18176;SDS011;9213;50.858;3.964;2022-07-29T08:49:29;3.67;;;3.10;;
18176;SDS011;9213;50.858;3.964;2022-07-29T08:51:56;3.88;;;2.95;;
18176;SDS011;9213;50.858;3.964;2022-07-29T08:54:24;3.20;;;2.70;;
18176;SDS011;9213;50.858;3.964;2022-07-29T08:56:51;3.85;;;3.20;;
18176;SDS011;9213;50.858;3.964;2022-07-29T08:59:19;3.50;;;3.15;;
18176;SDS011;9213;50.858;3.964;2022-07-29T09:01:48;6.47;;;3.17;;
18176;SDS011;9213;50.858;3.964;2022-07-29T09:04:16;4.40;;;2.90;;
18176;SDS011;9213;50.858;3.964;2022-07-29T09:06:47;4.28;;;2.67;;
18176;SDS011;9213;50.858;3.964;2022-07-29T09:09:16;4.25;;;2.92;;
18176;SDS011;9213;50.858;3.964;2022-07-29T09:11:43;6.53;;;2.78;;
18176;SDS011;9213;50.858;3.964;2022-07-29T09:14:11;5.28;;;2.65;;
18176;SDS011;9213;50.858;3.964;2022-07-29T09:16:49;3.17;;;2.60;;
18176;SDS011;9213;50.858;3.964;2022-07-29T09:19:20;4.10;;;2.67;;
18176;SDS011;9213;50.858;3.964;2022-07-29T09:21:50;4.38;;;2.60;;
18176;SDS011;9213;50.858;3.964;2022-07-29T09:24:28;5.07;;;3.40;;
18176;SDS011;9213;50.858;3.964;2022-07-29T09:27:07;5.95;;;3.30;;
18176;SDS011;9213;50.858;3.964;2022-07-29T09:29:36;4.32;;;2.70;;
18176;SDS011;9213;50.858;3.964;2022-07-29T09:32:05;6.10;;;3.30;;
18176;SDS011;9213;50.858;3.964;2022-07-29T09:34:36;5.15;;;3.70;;
18176;SDS011;9213;50.858;3.964;2022-07-29T09:37:04;8.38;;;4.00;;
18176;SDS011;9213;50.858;3.964;2022-07-29T09:39:32;5.57;;;4.10;;
18176;SDS011;9213;50.858;3.964;2022-07-29T09:42:02;6.82;;;4.05;;
18176;SDS011;9213;50.858;3.964;2022-07-29T09:44:43;5.45;;;4.22;;
18176;SDS011;9213;50.858;3.964;2022-07-29T09:47:13;7.07;;;4.65;;
18176;SDS011;9213;50.858;3.964;2022-07-29T09:49:50;5.85;;;3.75;;
18176;SDS011;9213;50.858;3.964;2022-07-29T09:52:21;5.88;;;4.10;;
18176;SDS011;9213;50.858;3.964;2022-07-29T09:54:48;4.40;;;3.60;;
18176;SDS011;9213;50.858;3.964;2022-07-29T09:57:22;5.88;;;2.88;;
18176;SDS011;9213;50.858;3.964;2022-07-29T09:59:57;4.65;;;2.17;;
18176;SDS011;9213;50.858;3.964;2022-07-29T10:02:29;4.53;;;3.25;;
18176;SDS011;9213;50.858;3.964;2022-07-29T10:04:57;4.80;;;3.00;;
18176;SDS011;9213;50.858;3.964;2022-07-29T10:07:26;7.10;;;2.90;;
18176;SDS011;9213;50.858;3.964;2022-07-29T10:10:09;6.80;;;2.60;;
18176;SDS011;9213;50.858;3.964;2022-07-29T10:12:47;4.97;;;2.30;;
18176;SDS011;9213;50.858;3.964;2022-07-29T10:15:16;3.35;;;2.60;;
18176;SDS011;9213;50.858;3.964;2022-07-29T10:17:45;4.75;;;2.50;;
18176;SDS011;9213;50.858;3.964;2022-07-29T10:20:13;5.47;;;2.42;;
18176;SDS011;9213;50.858;3.964;2022-07-29T10:22:41;5.10;;;2.53;;
18176;SDS011;9213;50.858;3.964;2022-07-29T10:25:09;3.63;;;2.60;;
18176;SDS011;9213;50.858;3.964;2022-07-29T10:27:36;9.32;;;2.83;;
18176;SDS011;9213;50.858;3.964;2022-07-29T10:30:04;6.53;;;2.88;;
18176;SDS011;9213;50.858;3.964;2022-07-29T10:32:39;4.75;;;2.25;;
18176;SDS011;9213;50.858;3.964;2022-07-29T10:44:04;3.45;;;2.25;;
18176;SDS011;9213;50.858;3.964;2022-07-29T10:46:40;2.60;;;2.40;;
18176;SDS011;9213;50.858;3.964;2022-07-29T10:49:08;4.85;;;2.40;;
18176;SDS011;9213;50.858;3.964;2022-07-29T10:51:57;2.80;;;2.00;;
18176;SDS011;9213;50.858;3.964;2022-07-29T10:54:43;4.28;;;1.90;;
18176;SDS011;9213;50.858;3.964;2022-07-29T10:57:22;7.32;;;2.38;;
18176;SDS011;9213;50.858;3.964;2022-07-29T11:02:57;2.90;;;2.10;;
18176;SDS011;9213;50.858;3.964;2022-07-29T11:05:25;7.75;;;2.15;;
18176;SDS011;9213;50.858;3.964;2022-07-29T11:10:50;4.13;;;2.00;;
18176;SDS011;9213;50.858;3.964;2022-07-29T11:16:17;4.10;;;2.08;;
18176;SDS011;9213;50.858;3.964;2022-07-29T11:19:18;3.03;;;1.83;;
18176;SDS011;9213;50.858;3.964;2022-07-29T11:21:46;3.20;;;1.85;;
18176;SDS011;9213;50.858;3.964;2022-07-29T11:24:15;4.75;;;1.92;;
18176;SDS011;9213;50.858;3.964;2022-07-29T11:26:45;2.10;;;1.70;;
18176;SDS011;9213;50.858;3.964;2022-07-29T11:29:31;4.78;;;1.67;;
18176;SDS011;9213;50.858;3.964;2022-07-29T11:32:08;4.13;;;1.77;;
18176;SDS011;9213;50.858;3.964;2022-07-29T11:34:35;5.55;;;2.08;;
18176;SDS011;9213;50.858;3.964;2022-07-29T11:37:18;6.45;;;1.95;;
18176;SDS011;9213;50.858;3.964;2022-07-29T11:40:09;5.97;;;2.15;;
18176;SDS011;9213;50.858;3.964;2022-07-29T11:42:40;3.15;;;2.05;;
18176;SDS011;9213;50.858;3.964;2022-07-29T11:45:09;2.50;;;2.05;;
18176;SDS011;9213;50.858;3.964;2022-07-29T11:47:39;5.20;;;2.15;;
18176;SDS011;9213;50.858;3.964;2022-07-29T11:50:07;3.08;;;2.10;;
18176;SDS011;9213;50.858;3.964;2022-07-29T11:52:36;5.25;;;2.25;;
18176;SDS011;9213;50.858;3.964;2022-07-29T11:55:08;4.00;;;1.98;;
18176;SDS011;9213;50.858;3.964;2022-07-29T11:57:37;5.53;;;2.08;;
18176;SDS011;9213;50.858;3.964;2022-07-29T12:00:16;9.30;;;2.00;;
18176;SDS011;9213;50.858;3.964;2022-07-29T12:02:49;5.13;;;2.20;;
18176;SDS011;9213;50.858;3.964;2022-07-29T12:05:16;3.17;;;2.25;;
18176;SDS011;9213;50.858;3.964;2022-07-29T12:07:43;4.55;;;2.40;;
18176;SDS011;9213;50.858;3.964;2022-07-29T12:10:11;8.27;;;2.30;;
18176;SDS011;9213;50.858;3.964;2022-07-29T12:12:37;4.85;;;2.38;;
18176;SDS011;9213;50.858;3.964;2022-07-29T12:15:13;3.72;;;2.42;;
18176;SDS011;9213;50.858;3.964;2022-07-29T12:17:42;6.75;;;3.88;;
18176;SDS011;9213;50.858;3.964;2022-07-29T12:20:10;6.53;;;3.22;;
18176;SDS011;9213;50.858;3.964;2022-07-29T12:22:38;3.17;;;2.90;;
18176;SDS011;9213;50.858;3.964;2022-07-29T12:25:09;6.07;;;2.83;;
18176;SDS011;9213;50.858;3.964;2022-07-29T12:27:39;4.25;;;2.83;;
18176;SDS011;9213;50.858;3.964;2022-07-29T12:30:08;5.22;;;2.53;;
18176;SDS011;9213;50.858;3.964;2022-07-29T12:32:38;5.38;;;2.92;;
18176;SDS011;9213;50.858;3.964;2022-07-29T12:35:10;7.85;;;4.00;;
18176;SDS011;9213;50.858;3.964;2022-07-29T12:37:40;3.67;;;3.28;;
18176;SDS011;9213;50.858;3.964;2022-07-29T12:40:08;5.25;;;4.10;;
18176;SDS011;9213;50.858;3.964;2022-07-29T12:42:36;6.38;;;4.07;;
18176;SDS011;9213;50.858;3.964;2022-07-29T12:45:04;5.47;;;4.20;;
18176;SDS011;9213;50.858;3.964;2022-07-29T12:47:32;5.25;;;4.03;;
18176;SDS011;9213;50.858;3.964;2022-07-29T12:50:10;5.03;;;4.18;;
18176;SDS011;9213;50.858;3.964;2022-07-29T12:52:43;3.67;;;3.10;;
18176;SDS011;9213;50.858;3.964;2022-07-29T12:55:11;5.57;;;3.70;;
18176;SDS011;9213;50.858;3.964;2022-07-29T12:57:44;6.75;;;4.95;;
18176;SDS011;9213;50.858;3.964;2022-07-29T13:00:13;5.45;;;3.17;;
18176;SDS011;9213;50.858;3.964;2022-07-29T13:02:41;6.25;;;3.72;;
18176;SDS011;9213;50.858;3.964;2022-07-29T13:05:10;6.57;;;4.00;;
18176;SDS011;9213;50.858;3.964;2022-07-29T13:07:37;4.75;;;3.85;;
18176;SDS011;9213;50.858;3.964;2022-07-29T13:10:12;6.50;;;3.80;;
18176;SDS011;9213;50.858;3.964;2022-07-29T13:15:28;7.97;;;4.22;;
18176;SDS011;9213;50.858;3.964;2022-07-29T13:17:56;6.70;;;4.15;;
18176;SDS011;9213;50.858;3.964;2022-07-29T13:20:25;6.55;;;3.50;;
18176;SDS011;9213;50.858;3.964;2022-07-29T13:22:54;6.40;;;3.90;;
18176;SDS011;9213;50.858;3.964;2022-07-29T13:25:25;6.97;;;3.75;;
18176;SDS011;9213;50.858;3.964;2022-07-29T13:27:52;7.47;;;4.10;;
18176;SDS011;9213;50.858;3.964;2022-07-29T13:30:21;6.43;;;3.35;;
18176;SDS011;9213;50.858;3.964;2022-07-29T13:32:49;5.80;;;4.00;;
18176;SDS011;9213;50.858;3.964;2022-07-29T13:35:16;6.95;;;4.30;;
18176;SDS011;9213;50.858;3.964;2022-07-29T13:37:45;9.45;;;3.55;;
18176;SDS011;9213;50.858;3.964;2022-07-29T13:40:12;4.47;;;3.35;;
18176;SDS011;9213;50.858;3.964;2022-07-29T13:42:40;4.13;;;3.00;;
18176;SDS011;9213;50.858;3.964;2022-07-29T13:45:08;3.88;;;2.65;;
18176;SDS011;9213;50.858;3.964;2022-07-29T13:47:36;3.78;;;2.78;;
18176;SDS011;9213;50.858;3.964;2022-07-29T13:50:04;4.15;;;2.65;;
18176;SDS011;9213;50.858;3.964;2022-07-29T13:52:32;4.75;;;2.70;;
18176;SDS011;9213;50.858;3.964;2022-07-29T13:55:01;5.15;;;2.92;;
18176;SDS011;9213;50.858;3.964;2022-07-29T13:57:29;4.63;;;3.15;;
18176;SDS011;9213;50.858;3.964;2022-07-29T13:59:56;3.85;;;3.00;;
18176;SDS011;9213;50.858;3.964;2022-07-29T14:02:23;6.10;;;2.83;;
18176;SDS011;9213;50.858;3.964;2022-07-29T14:04:50;4.68;;;2.50;;
18176;SDS011;9213;50.858;3.964;2022-07-29T14:07:17;4.05;;;2.78;;
18176;SDS011;9213;50.858;3.964;2022-07-29T14:09:44;6.55;;;2.20;;
18176;SDS011;9213;50.858;3.964;2022-07-29T14:12:13;5.35;;;2.60;;
18176;SDS011;9213;50.858;3.964;2022-07-29T14:14:39;3.97;;;2.22;;
18176;SDS011;9213;50.858;3.964;2022-07-29T14:17:06;3.75;;;2.58;;
18176;SDS011;9213;50.858;3.964;2022-07-29T14:19:33;5.43;;;2.47;;
18176;SDS011;9213;50.858;3.964;2022-07-29T14:22:02;3.65;;;2.25;;
18176;SDS011;9213;50.858;3.964;2022-07-29T14:24:30;3.95;;;2.20;;
18176;SDS011;9213;50.858;3.964;2022-07-29T14:26:57;3.40;;;2.13;;
18176;SDS011;9213;50.858;3.964;2022-07-29T14:29:26;4.05;;;2.05;;
18176;SDS011;9213;50.858;3.964;2022-07-29T14:31:53;5.80;;;2.13;;
18176;SDS011;9213;50.858;3.964;2022-07-29T14:34:20;5.38;;;1.80;;
18176;SDS011;9213;50.858;3.964;2022-07-29T14:36:47;4.47;;;2.03;;
18176;SDS011;9213;50.858;3.964;2022-07-29T14:39:14;3.17;;;1.83;;
18176;SDS011;9213;50.858;3.964;2022-07-29T14:41:41;3.60;;;2.10;;
18176;SDS011;9213;50.858;3.964;2022-07-29T14:44:08;3.80;;;2.25;;
18176;SDS011;9213;50.858;3.964;2022-07-29T14:46:37;4.53;;;2.50;;
18176;SDS011;9213;50.858;3.964;2022-07-29T14:49:04;2.80;;;2.15;;
18176;SDS011;9213;50.858;3.964;2022-07-29T14:51:31;5.30;;;2.55;;
18176;SDS011;9213;50.858;3.964;2022-07-29T14:53:58;4.45;;;2.30;;
18176;SDS011;9213;50.858;3.964;2022-07-29T14:56:25;3.40;;;2.20;;
18176;SDS011;9213;50.858;3.964;2022-07-29T14:58:54;5.82;;;2.53;;
18176;SDS011;9213;50.858;3.964;2022-07-29T15:01:22;5.65;;;2.08;;
18176;SDS011;9213;50.858;3.964;2022-07-29T15:03:50;5.57;;;2.10;;
18176;SDS011;9213;50.858;3.964;2022-07-29T15:06:17;4.70;;;1.85;;
18176;SDS011;9213;50.858;3.964;2022-07-29T15:08:44;2.65;;;1.92;;
18176;SDS011;9213;50.858;3.964;2022-07-29T15:11:11;4.50;;;1.83;;
18176;SDS011;9213;50.858;3.964;2022-07-29T15:13:38;3.83;;;1.90;;
18176;SDS011;9213;50.858;3.964;2022-07-29T15:16:05;4.60;;;2.30;;
18176;SDS011;9213;50.858;3.964;2022-07-29T15:18:32;4.18;;;1.95;;
18176;SDS011;9213;50.858;3.964;2022-07-29T15:21:01;3.08;;;1.92;;
18176;SDS011;9213;50.858;3.964;2022-07-29T15:23:27;6.07;;;1.70;;
18176;SDS011;9213;50.858;3.964;2022-07-29T15:25:54;5.03;;;1.90;;
18176;SDS011;9213;50.858;3.964;2022-07-29T15:28:21;2.78;;;2.03;;
18176;SDS011;9213;50.858;3.964;2022-07-29T15:30:48;4.32;;;1.77;;
18176;SDS011;9213;50.858;3.964;2022-07-29T15:33:15;4.88;;;2.95;;